Time;durP1;ratioP1;P1;durP2;ratioP2;P2;SDS_P1;SDS_P2;PMS_P1;PMS_P2;Temp;Humidity;BMP_temperature;BMP_pressure;BME280_temperature;BME280_humidity;BME280_pressure;Samples;Min_cycle;Max_cycle;Signal;HPM_P1;HPM_P2
2022/11/29 00:01:42;;;;;;;2.85;1.60;;;17.70;77.20;;;;;;6186200;23;45301;-73
2022/11/29 00:04:09;;;;;;;2.80;1.50;;;17.70;77.20;;;;;;6186084;23;45369;-73
2022/11/29 00:06:36;;;;;;;2.97;1.60;;;17.70;77.10;;;;;;6186157;23;45438;-73
2022/11/29 00:09:12;;;;;;;2.72;1.63;;;17.60;77.00;;;;;;6186177;23;45324;-73
2022/11/29 00:14:36;;;;;;;3.90;1.67;;;17.70;76.90;;;;;;6095115;23;45392;-73
2022/11/29 00:17:04;;;;;;;2.67;1.42;;;17.60;76.90;;;;;;6163101;23;47798;-72
2022/11/29 00:19:32;;;;;;;2.20;1.60;;;17.60;77.00;;;;;;6186183;23;45175;-73
2022/11/29 00:21:59;;;;;;;2.42;1.55;;;17.70;77.00;;;;;;6186295;23;45185;-73
2022/11/29 00:24:30;;;;;;;1.90;1.48;;;17.70;77.10;;;;;;6185979;23;45505;-73
2022/11/29 00:26:57;;;;;;;3.92;1.98;;;17.60;76.90;;;;;;6185917;23;47430;-73
2022/11/29 00:29:24;;;;;;;3.65;1.80;;;17.60;77.00;;;;;;6186309;23;45336;-73
2022/11/29 00:31:50;;;;;;;4.47;1.58;;;17.60;77.10;;;;;;6186334;23;45437;-73
2022/11/29 00:34:18;;;;;;;2.42;1.55;;;17.60;77.00;;;;;;6186181;23;45352;-73
2022/11/29 00:36:45;;;;;;;1.85;1.40;;;17.60;77.10;;;;;;6186154;23;45448;-73
2022/11/29 00:39:12;;;;;;;3.75;1.60;;;17.60;78.00;;;;;;6186257;23;45462;-73
2022/11/29 00:41:40;;;;;;;3.63;1.63;;;17.70;77.20;;;;;;6186006;23;45213;-73
2022/11/29 00:44:06;;;;;;;3.67;1.52;;;17.70;77.30;;;;;;6186365;23;45214;-73
2022/11/29 00:46:33;;;;;;;2.53;1.58;;;17.60;77.30;;;;;;6185939;23;47452;-73
2022/11/29 00:49:00;;;;;;;2.65;1.75;;;17.70;77.30;;;;;;6186236;23;45202;-73
2022/11/29 00:51:28;;;;;;;3.92;1.88;;;17.60;77.10;;;;;;6186072;23;45236;-73
2022/11/29 00:53:55;;;;;;;1.90;1.30;;;17.60;77.10;;;;;;6186023;23;45268;-73
2022/11/29 00:56:22;;;;;;;3.08;1.60;;;17.70;77.30;;;;;;6185269;23;47748;-73
2022/11/29 00:58:49;;;;;;;2.72;1.77;;;17.60;77.20;;;;;;6185630;23;45393;-73
2022/11/29 01:01:16;;;;;;;3.08;1.38;;;17.70;77.10;;;;;;6186125;23;45397;-73
2022/11/29 01:03:43;;;;;;;2.72;1.50;;;17.70;77.20;;;;;;6185723;23;45214;-73
2022/11/29 01:06:12;;;;;;;4.45;1.55;;;17.70;77.00;;;;;;6185538;23;47315;-73
2022/11/29 01:08:41;;;;;;;3.10;1.60;;;17.60;76.90;;;;;;6185310;23;45294;-73
2022/11/29 01:11:12;;;;;;;3.30;1.90;;;17.60;77.00;;;;;;6185558;23;45152;-73
2022/11/29 01:13:40;;;;;;;2.35;1.40;;;17.60;76.90;;;;;;6185754;23;45290;-73
2022/11/29 01:16:08;;;;;;;3.75;1.80;;;17.60;77.00;;;;;;6185210;23;47980;-74
2022/11/29 01:18:35;;;;;;;2.28;1.58;;;17.60;76.90;;;;;;6185802;23;45361;-74
2022/11/29 01:21:04;;;;;;;3.95;1.70;;;17.70;77.10;;;;;;6185555;23;45197;-73
2022/11/29 01:23:31;;;;;;;3.40;1.73;;;17.60;77.00;;;;;;6185909;23;45337;-72
2022/11/29 01:26:05;;;;;;;2.72;1.50;;;17.60;77.00;;;;;;6184746;23;46647;-73
2022/11/29 01:28:32;;;;;;;3.53;1.88;;;17.60;77.00;;;;;;6185751;23;45462;-73
2022/11/29 01:30:59;;;;;;;2.20;1.42;;;17.60;77.00;;;;;;6185701;23;45264;-73
2022/11/29 01:33:25;;;;;;;3.22;1.88;;;17.60;77.10;;;;;;6185709;23;45213;-74
2022/11/29 01:35:54;;;;;;;2.65;1.58;;;17.60;77.10;;;;;;6185091;23;46540;-73
2022/11/29 01:38:22;;;;;;;2.47;1.60;;;17.60;77.10;;;;;;6185137;23;45290;-73
2022/11/29 01:40:58;;;;;;;2.10;1.50;;;17.60;77.10;;;;;;6185586;23;45374;-73
2022/11/29 01:43:26;;;;;;;2.92;1.55;;;17.60;78.20;;;;;;6186656;23;45404;-72
2022/11/29 01:45:54;;;;;;;3.75;1.73;;;17.60;77.20;;;;;;6186557;23;47014;-73
2022/11/29 01:48:23;;;;;;;4.47;1.67;;;17.60;77.10;;;;;;6186842;23;46201;-73
2022/11/29 01:50:50;;;;;;;3.05;1.80;;;17.60;77.20;;;;;;6186570;23;45257;-73
2022/11/29 01:53:17;;;;;;;3.70;2.05;;;17.60;77.10;;;;;;6187176;23;45166;-73
2022/11/29 01:55:47;;;;;;;2.95;1.58;;;17.60;77.10;;;;;;6186472;23;47228;-73
2022/11/29 01:58:15;;;;;;;3.05;1.55;;;17.60;77.20;;;;;;6186489;23;45316;-72
2022/11/29 02:00:43;;;;;;;3.33;1.70;;;17.60;77.20;;;;;;6186729;23;45259;-73
2022/11/29 02:03:12;;;;;;;4.03;1.80;;;17.70;77.10;;;;;;6187261;23;45331;-73
2022/11/29 02:05:41;;;;;;;4.97;2.00;;;17.70;77.10;;;;;;6186591;23;47913;-73
2022/11/29 02:08:10;;;;;;;4.03;2.03;;;17.60;77.00;;;;;;6186485;23;45164;-73
2022/11/29 02:10:51;;;;;;;3.10;1.73;;;17.70;77.10;;;;;;6186430;23;45477;-73
2022/11/29 02:13:27;;;;;;;3.38;1.75;;;17.60;77.10;;;;;;6186861;23;45217;-72
2022/11/29 02:16:03;;;;;;;3.15;1.90;;;17.60;77.10;;;;;;6186415;23;47252;-73
2022/11/29 02:18:44;;;;;;;3.30;2.00;;;17.60;77.10;;;;;;6186570;23;45216;-73
2022/11/29 02:21:32;;;;;;;4.10;1.73;;;17.60;76.90;;;;;;6186938;23;45434;-73
2022/11/29 02:24:47;;;;;;;2.50;1.70;;;17.60;76.90;;;;;;6186488;23;45154;-73
2022/11/29 02:27:46;;;;;;;2.33;1.67;;;17.60;77.00;;;;;;6186519;23;46779;-73
2022/11/29 02:30:27;;;;;;;2.72;1.70;;;17.60;76.90;;;;;;6186515;23;45208;-73
2022/11/29 02:33:13;;;;;;;4.13;1.67;;;17.60;77.00;;;;;;6186729;23;45188;-73
2022/11/29 02:36:11;;;;;;;4.03;2.00;;;17.60;77.00;;;;;;6186480;23;45275;-73
2022/11/29 02:38:54;;;;;;;2.80;1.52;;;17.60;77.00;;;;;;6186392;23;46249;-73
2022/11/29 02:41:30;;;;;;;3.22;1.55;;;17.60;77.20;;;;;;6186683;23;45150;-73
2022/11/29 02:44:33;;;;;;;4.03;1.80;;;17.60;77.20;;;;;;6186683;23;45142;-72
2022/11/29 02:47:13;;;;;;;3.00;1.52;;;17.60;77.20;;;;;;6185948;23;45104;-72
2022/11/29 02:50:18;;;;;;;4.80;1.90;;;17.60;77.20;;;;;;6186238;23;47985;-73
2022/11/29 02:52:52;;;;;;;5.20;1.52;;;17.60;77.50;;;;;;6186489;23;45323;-72
2022/11/29 02:55:26;;;;;;;3.33;2.10;;;17.60;77.20;;;;;;6186182;23;45292;-73
2022/11/29 02:58:00;;;;;;;3.05;1.88;;;17.60;77.20;;;;;;6186742;23;45151;-73
2022/11/29 03:00:27;;;;;;;4.03;2.10;;;17.70;77.40;;;;;;6186418;23;45562;-73
2022/11/29 03:03:03;;;;;;;4.70;1.88;;;17.60;77.30;;;;;;6186479;23;45189;-73
2022/11/29 03:05:40;;;;;;;5.32;2.30;;;17.60;77.20;;;;;;6186399;23;45209;-73
2022/11/29 03:08:15;;;;;;;3.22;1.95;;;17.60;77.10;;;;;;6186958;23;45169;-73
2022/11/29 03:10:55;;;;;;;4.32;2.30;;;17.60;77.30;;;;;;6186072;23;45309;-73
2022/11/29 03:13:29;;;;;;;3.63;1.88;;;17.60;77.30;;;;;;6186512;23;45924;-73
2022/11/29 03:16:03;;;;;;;2.97;1.95;;;17.60;77.20;;;;;;6186456;23;45201;-74
2022/11/29 03:18:38;;;;;;;3.67;1.80;;;17.60;77.30;;;;;;6186598;23;45415;-73
2022/11/29 03:21:24;;;;;;;3.75;2.05;;;17.60;77.20;;;;;;6186336;23;46626;-73
2022/11/29 03:23:55;;;;;;;4.65;2.28;;;17.60;77.20;;;;;;6186128;23;46250;-72
2022/11/29 03:26:29;;;;;;;2.88;1.92;;;17.60;77.20;;;;;;6186366;23;45216;-73
2022/11/29 03:29:05;;;;;;;3.67;1.98;;;17.60;77.30;;;;;;6186458;23;45526;-73
2022/11/29 03:31:36;;;;;;;4.40;2.30;;;17.60;77.20;;;;;;6186305;23;45448;-73
2022/11/29 03:34:13;;;;;;;4.70;2.50;;;17.60;77.30;;;;;;6186023;23;45713;-73
2022/11/29 03:36:47;;;;;;;3.88;2.13;;;17.60;77.20;;;;;;6186291;23;45204;-73
2022/11/29 03:39:20;;;;;;;5.68;2.58;;;17.60;77.30;;;;;;6186859;23;45271;-73
2022/11/29 03:41:53;;;;;;;5.35;2.35;;;17.60;77.20;;;;;;6186020;23;45305;-73
2022/11/29 03:44:24;;;;;;;3.45;2.33;;;17.60;77.30;;;;;;6186028;23;45301;-73
2022/11/29 03:46:58;;;;;;;5.88;2.03;;;17.60;78.30;;;;;;6186054;23;45300;-73
2022/11/29 03:49:29;;;;;;;3.95;2.38;;;17.60;77.40;;;;;;6186610;23;45260;-73
2022/11/29 03:52:04;;;;;;;4.22;2.70;;;17.60;77.40;;;;;;6185729;23;46286;-73
2022/11/29 03:54:46;;;;;;;3.20;2.05;;;17.60;77.40;;;;;;6186258;23;45134;-73
2022/11/29 03:57:18;;;;;;;3.88;2.15;;;17.60;77.30;;;;;;6186372;23;45290;-73
2022/11/29 03:59:54;;;;;;;4.80;2.50;;;17.70;77.50;;;;;;6186294;23;45245;-73
2022/11/29 04:02:55;;;;;;;5.15;2.67;;;17.60;77.30;;;;;;6186000;23;46598;-72
2022/11/29 04:05:37;;;;;;;5.70;2.70;;;17.60;77.30;;;;;;6185804;23;45384;-73
2022/11/29 04:08:47;;;;;;;5.10;2.72;;;17.60;77.00;;;;;;6186418;23;45328;-73
2022/11/29 04:11:54;;;;;;;4.93;2.90;;;17.60;77.20;;;;;;6094639;23;45284;-72
2022/11/29 04:14:48;;;;;;;5.90;3.60;;;17.70;77.20;;;;;;6216088;22;46559;-74
2022/11/29 04:17:38;;;;;;;7.10;3.50;;;17.60;77.10;;;;;;6201562;22;45280;-73
2022/11/29 04:20:23;;;;;;;5.80;3.17;;;17.60;76.80;;;;;;6216364;22;45147;-73
2022/11/29 04:23:12;;;;;;;7.72;3.78;;;17.60;76.40;;;;;;6216381;22;45133;-72
2022/11/29 04:25:58;;;;;;;7.82;4.30;;;17.60;76.70;;;;;;6215387;22;47061;-73
2022/11/29 04:28:45;;;;;;;6.18;3.78;;;17.60;76.50;;;;;;6215658;22;45358;-73
2022/11/29 04:31:21;;;;;;;7.20;4.03;;;17.60;76.50;;;;;;6216073;22;45314;-72
2022/11/29 04:34:09;;;;;;;7.55;4.18;;;17.60;76.50;;;;;;6215929;22;45346;-72
2022/11/29 04:36:57;;;;;;;7.32;3.70;;;17.60;76.60;;;;;;6215702;22;45291;-73
2022/11/29 04:39:38;;;;;;;8.20;4.28;;;17.60;77.00;;;;;;6215967;22;45231;-73
2022/11/29 04:42:34;;;;;;;7.93;4.03;;;17.60;76.90;;;;;;6216006;22;45200;-73
2022/11/29 04:45:48;;;;;;;8.63;4.28;;;17.60;76.90;;;;;;6215748;22;45276;-72
2022/11/29 04:48:32;;;;;;;10.85;4.30;;;17.60;77.00;;;;;;6215737;22;46580;-73
2022/11/29 04:51:12;;;;;;;11.20;4.30;;;17.60;76.90;;;;;;6215491;22;45113;-73
2022/11/29 04:53:50;;;;;;;6.57;3.83;;;17.60;77.00;;;;;;6215922;22;45240;-72
2022/11/29 04:56:25;;;;;;;10.65;4.45;;;17.60;76.90;;;;;;6215710;22;45271;-73
2022/11/29 04:59:02;;;;;;;10.10;4.65;;;17.70;77.00;;;;;;6215809;22;45463;-72
2022/11/29 05:01:41;;;;;;;8.45;4.60;;;17.60;76.90;;;;;;6215718;22;45275;-73
2022/11/29 05:04:17;;;;;;;8.93;4.40;;;17.60;76.80;;;;;;6216052;22;45199;-73
2022/11/29 05:06:58;;;;;;;13.48;5.05;;;17.60;76.80;;;;;;6216198;22;45647;-73
2022/11/29 05:09:31;;;;;;;8.10;4.60;;;17.60;76.80;;;;;;6215284;22;47309;-73
2022/11/29 05:12:05;;;;;;;10.15;4.95;;;17.60;76.90;;;;;;6191532;22;45353;-72
2022/11/29 05:14:49;;;;;;;9.85;5.03;;;17.60;76.80;;;;;;6184862;23;45329;-74
2022/11/29 05:17:30;;;;;;;12.57;5.88;;;17.60;76.70;;;;;;6184686;23;45411;-72
2022/11/29 05:20:13;;;;;;;13.35;5.43;;;17.60;76.80;;;;;;6184675;23;47555;-73
2022/11/29 05:22:48;;;;;;;14.00;5.18;;;17.60;77.00;;;;;;6185500;23;45180;-73
2022/11/29 05:25:32;;;;;;;11.02;5.07;;;17.60;77.00;;;;;;6185500;23;45197;-73
2022/11/29 05:28:13;;;;;;;10.32;4.72;;;17.60;77.00;;;;;;6185600;23;45324;-72
2022/11/29 05:30:59;;;;;;;11.75;5.35;;;17.60;76.90;;;;;;6185135;23;45426;-73
2022/11/29 05:33:48;;;;;;;11.35;5.63;;;17.60;76.90;;;;;;6185135;23;45231;-73
2022/11/29 05:36:24;;;;;;;7.30;4.38;;;17.60;76.80;;;;;;6185472;23;45234;-73
2022/11/29 05:39:07;;;;;;;10.40;5.70;;;17.60;77.10;;;;;;6185439;23;45132;-73
2022/11/29 05:41:50;;;;;;;14.65;5.95;;;17.60;77.10;;;;;;6184475;23;45477;-72
2022/11/29 05:44:26;;;;;;;12.77;6.63;;;17.60;76.90;;;;;;6184094;23;45192;-72
2022/11/29 05:46:58;;;;;;;12.88;6.30;;;17.60;76.70;;;;;;6184016;23;45408;-72
2022/11/29 05:49:34;;;;;;;13.45;6.47;;;17.60;76.90;;;;;;6184052;23;45336;-72
2022/11/29 05:52:19;;;;;;;11.95;6.90;;;17.60;77.10;;;;;;6183920;23;47676;-72
2022/11/29 05:54:58;;;;;;;14.25;7.55;;;17.60;76.60;;;;;;6184493;23;45263;-72
2022/11/29 05:57:33;;;;;;;15.65;7.78;;;17.60;76.10;;;;;;6184569;23;45250;-73
2022/11/29 06:00:04;;;;;;;15.70;7.68;;;17.60;76.20;;;;;;6184596;23;45508;-73
2022/11/29 06:02:40;;;;;;;16.50;8.60;;;17.60;75.20;;;;;;6184393;23;48335;-73
2022/11/29 06:05:13;;;;;;;17.60;9.30;;;17.60;75.00;;;;;;6183733;23;45269;-72
2022/11/29 06:07:47;;;;;;;18.10;8.75;;;17.50;74.60;;;;;;6183434;23;45516;-72
2022/11/29 06:10:16;;;;;;;17.40;9.45;;;17.50;74.50;;;;;;6183454;23;45370;-72
2022/11/29 06:12:53;;;;;;;18.33;8.70;;;17.50;74.50;;;;;;6183302;23;45265;-72
2022/11/29 06:15:57;;;;;;;16.35;8.30;;;17.50;74.60;;;;;;6184020;23;45287;-72
2022/11/29 06:18:56;;;;;;;16.92;7.82;;;17.50;76.10;;;;;;6122472;23;45303;-73
2022/11/29 06:21:35;;;;;;;19.38;8.82;;;17.50;74.70;;;;;;6184223;23;45159;-72
2022/11/29 06:24:21;;;;;;;19.23;9.27;;;17.40;74.70;;;;;;6183278;23;48036;-72
2022/11/29 06:27:09;;;;;;;18.95;8.88;;;17.50;74.70;;;;;;6183374;23;45284;-72
2022/11/29 06:29:41;;;;;;;20.30;9.48;;;17.40;74.40;;;;;;6185417;23;45388;-73
2022/11/29 06:32:20;;;;;;;15.18;9.07;;;17.50;74.50;;;;;;6186240;23;45398;-73
2022/11/29 06:34:57;;;;;;;19.00;9.00;;;17.50;74.70;;;;;;6185506;23;47035;-72
2022/11/29 06:37:29;;;;;;;21.25;9.20;;;17.50;74.90;;;;;;6185423;23;45366;-72
2022/11/29 06:39:56;;;;;;;16.58;8.48;;;17.50;76.00;;;;;;6186042;23;45203;-72
2022/11/29 06:42:23;;;;;;;19.63;9.23;;;17.50;74.90;;;;;;6186462;23;45395;-72
2022/11/29 06:44:50;;;;;;;18.38;8.93;;;17.50;74.70;;;;;;6186403;23;46346;-73
2022/11/29 06:47:24;;;;;;;18.50;9.55;;;17.50;74.70;;;;;;6186440;23;45408;-72
2022/11/29 06:50:01;;;;;;;22.00;9.45;;;17.50;74.50;;;;;;6186863;23;45141;-73
2022/11/29 06:52:37;;;;;;;18.85;9.27;;;17.50;74.40;;;;;;6186777;23;45217;-72
2022/11/29 06:55:14;;;;;;;20.45;9.23;;;17.50;74.40;;;;;;6185750;23;46889;-73
2022/11/29 06:57:58;;;;;;;17.67;8.88;;;17.50;74.20;;;;;;6186049;23;45293;-74
2022/11/29 07:00:28;;;;;;;16.85;10.20;;;17.50;74.00;;;;;;6186135;23;45475;-72
2022/11/29 07:03:32;;;;;;;19.77;10.40;;;17.50;73.80;;;;;;6186005;23;45435;-72
2022/11/29 07:06:04;;;;;;;17.40;9.68;;;17.50;74.10;;;;;;6184939;23;45377;-73
2022/11/29 07:08:31;;;;;;;18.75;10.00;;;17.50;74.00;;;;;;6185704;23;45163;-73
2022/11/29 07:10:59;;;;;;;21.13;10.50;;;17.50;73.60;;;;;;6185519;23;45133;-73
2022/11/29 07:13:26;;;;;;;17.88;9.98;;;17.50;73.70;;;;;;6185747;23;45465;-73
2022/11/29 07:15:59;;;;;;;20.00;9.75;;;17.40;73.80;;;;;;6186082;23;45334;-73
2022/11/29 07:18:34;;;;;;;18.27;9.93;;;17.50;75.00;;;;;;6185542;23;45288;-73
2022/11/29 07:21:11;;;;;;;19.48;10.13;;;17.50;73.80;;;;;;6186192;23;45194;-73
2022/11/29 07:23:45;;;;;;;19.75;10.00;;;17.50;73.80;;;;;;6186801;23;45213;-73
2022/11/29 07:26:21;;;;;;;16.38;8.25;;;17.50;73.30;;;;;;6187140;23;45400;-73
2022/11/29 07:29:05;;;;;;;19.65;9.35;;;17.40;73.00;;;;;;6187008;23;45712;-73
2022/11/29 07:31:45;;;;;;;17.40;8.95;;;17.40;73.10;;;;;;6187406;23;45223;-73
2022/11/29 07:34:19;;;;;;;20.60;9.27;;;17.40;73.30;;;;;;6187378;23;45000;-73
2022/11/29 07:36:56;;;;;;;19.88;9.48;;;17.40;73.10;;;;;;6187003;23;46975;-73
2022/11/29 07:39:32;;;;;;;16.52;8.77;;;17.40;72.90;;;;;;6187190;23;45084;-73
2022/11/29 07:42:06;;;;;;;18.63;9.05;;;17.40;72.90;;;;;;6187136;23;45102;-74
2022/11/29 07:44:39;;;;;;;18.17;9.00;;;17.40;73.00;;;;;;6187480;23;45257;-73
2022/11/29 07:47:07;;;;;;;20.15;9.10;;;17.40;73.00;;;;;;6187033;23;45435;-73
2022/11/29 07:49:34;;;;;;;16.88;8.27;;;17.50;73.00;;;;;;6187316;23;45086;-73
2022/11/29 07:52:02;;;;;;;15.45;8.02;;;17.40;72.80;;;;;;6187288;23;45388;-74
2022/11/29 07:54:30;;;;;;;15.43;8.02;;;17.40;72.80;;;;;;6187475;23;45193;-73
2022/11/29 07:56:57;;;;;;;21.50;8.98;;;17.50;72.90;;;;;;6186717;23;47521;-74
2022/11/29 07:59:24;;;;;;;17.35;8.40;;;17.40;73.50;;;;;;6187044;23;45042;-73
2022/11/29 08:01:51;;;;;;;19.48;8.90;;;17.40;72.40;;;;;;6187431;23;45077;-73
2022/11/29 08:04:18;;;;;;;15.48;7.85;;;17.40;72.90;;;;;;6187281;23;45169;-73
2022/11/29 08:06:45;;;;;;;19.65;8.48;;;17.40;72.20;;;;;;6186965;23;46290;-73
2022/11/29 08:09:13;;;;;;;18.50;8.80;;;17.40;72.30;;;;;;6187104;23;45696;-73
2022/11/29 08:11:40;;;;;;;17.90;8.27;;;17.40;72.10;;;;;;6187057;23;45268;-73
2022/11/29 08:14:06;;;;;;;18.95;9.23;;;17.40;71.90;;;;;;6187349;23;45184;-73
2022/11/29 08:16:33;;;;;;;16.70;8.55;;;17.40;71.90;;;;;;6186917;23;47296;-73
2022/11/29 08:19:00;;;;;;;18.92;9.23;;;17.40;72.10;;;;;;6187144;23;45171;-73
2022/11/29 08:21:27;;;;;;;17.45;8.60;;;17.40;71.70;;;;;;6187163;23;45083;-74
2022/11/29 08:23:54;;;;;;;15.52;8.50;;;17.40;71.70;;;;;;6186996;23;45413;-73
2022/11/29 08:26:31;;;;;;;15.10;8.02;;;17.40;72.70;;;;;;6186840;23;45184;-73
2022/11/29 08:28:58;;;;;;;19.80;9.18;;;17.40;71.80;;;;;;6187251;23;46082;-73
2022/11/29 08:31:25;;;;;;;16.23;8.68;;;17.40;72.00;;;;;;6187131;23;45129;-74
2022/11/29 08:33:51;;;;;;;20.25;8.80;;;17.40;71.90;;;;;;6187107;23;45442;-73
2022/11/29 08:36:19;;;;;;;16.98;7.80;;;17.40;71.90;;;;;;6186865;23;47501;-74
2022/11/29 08:38:46;;;;;;;19.08;9.07;;;17.40;71.90;;;;;;6186767;23;45171;-73
2022/11/29 08:41:15;;;;;;;19.17;9.10;;;17.40;72.00;;;;;;6187076;23;45340;-73
2022/11/29 08:44:01;;;;;;;17.95;9.00;;;17.40;71.80;;;;;;6186949;23;45051;-73
2022/11/29 08:47:34;;;;;;;17.63;8.70;;;17.40;71.70;;;;;;6186951;23;47207;-74
2022/11/29 08:49:14;;;;;;;15.52;8.75;;;17.40;71.90;;;;;;6186953;23;45199;-74
2022/11/29 08:51:41;;;;;;;17.60;8.40;;;17.40;71.70;;;;;;6186753;23;45355;-74
2022/11/29 08:54:07;;;;;;;14.77;8.13;;;17.40;71.80;;;;;;6186885;23;45165;-73
2022/11/29 08:56:35;;;;;;;18.02;8.57;;;17.40;71.60;;;;;;6186693;23;48320;-72
2022/11/29 08:59:04;;;;;;;17.58;7.93;;;17.40;71.50;;;;;;6186290;23;45219;-73
2022/11/29 09:01:31;;;;;;;19.55;8.38;;;17.50;72.30;;;;;;6186767;23;45257;-74
2022/11/29 09:07:19;;;;;;;16.88;8.30;;;17.40;71.60;;;;;;6187053;23;45618;-74
2022/11/29 09:09:47;;;;;;;15.38;8.25;;;17.40;71.40;;;;;;6186477;23;45083;-74
2022/11/29 09:12:14;;;;;;;18.45;8.35;;;17.50;71.20;;;;;;6186611;23;45172;-74
2022/11/29 09:14:42;;;;;;;18.02;8.57;;;17.50;70.60;;;;;;6187163;23;45185;-74
2022/11/29 09:17:08;;;;;;;18.42;8.70;;;17.50;70.50;;;;;;6186441;23;46334;-74
2022/11/29 09:19:35;;;;;;;14.20;7.45;;;17.50;70.70;;;;;;6186395;23;45286;-74
2022/11/29 09:22:02;;;;;;;14.13;8.07;;;17.50;71.20;;;;;;6186932;23;45194;-74
2022/11/29 09:24:29;;;;;;;17.58;7.40;;;17.60;71.70;;;;;;6186910;23;45327;-73
2022/11/29 09:26:56;;;;;;;14.27;6.60;;;17.60;72.00;;;;;;6186572;23;46593;-74
2022/11/29 09:29:23;;;;;;;12.02;6.57;;;17.60;73.10;;;;;;6186591;23;45274;-75
2022/11/29 09:31:51;;;;;;;14.38;6.72;;;17.60;72.30;;;;;;6186774;23;45242;-74
2022/11/29 09:34:18;;;;;;;13.07;6.90;;;17.60;72.40;;;;;;6186869;23;45445;-74
2022/11/29 09:36:45;;;;;;;13.88;7.10;;;17.60;72.20;;;;;;6186409;23;46598;-74
2022/11/29 09:39:12;;;;;;;13.13;7.00;;;17.60;72.30;;;;;;6186625;23;45102;-74
2022/11/29 09:42:08;;;;;;;12.18;6.53;;;17.60;72.30;;;;;;6186641;23;45347;-74
2022/11/29 09:44:46;;;;;;;12.10;6.47;;;17.70;72.40;;;;;;6186752;23;45405;-74
2022/11/29 09:47:24;;;;;;;13.77;6.53;;;17.60;72.60;;;;;;6186551;23;47590;-74
2022/11/29 09:50:11;;;;;;;12.63;6.10;;;17.70;72.60;;;;;;6186522;23;45141;-73
2022/11/29 09:52:47;;;;;;;14.65;6.93;;;17.60;72.60;;;;;;6186606;23;45118;-73
2022/11/29 09:55:34;;;;;;;10.65;6.25;;;17.60;72.60;;;;;;6186248;23;45743;-73
2022/11/29 09:58:03;;;;;;;14.13;7.35;;;17.60;72.40;;;;;;6185743;23;45213;-73
2022/11/29 10:00:45;;;;;;;12.57;6.30;;;17.60;72.20;;;;;;6185517;23;45262;-73
2022/11/29 10:06:40;;;;;;;15.40;7.65;;;17.60;71.90;;;;;;6188003;23;45154;-73
2022/11/29 10:09:14;;;;;;;11.38;6.30;;;17.50;71.50;;;;;;6187605;23;47960;-73
2022/11/29 10:11:47;;;;;;;13.70;6.43;;;17.60;71.70;;;;;;6187192;22;45185;-73
2022/11/29 10:14:19;;;;;;;14.50;7.15;;;17.50;71.50;;;;;;6187995;23;45173;-73
2022/11/29 10:16:54;;;;;;;12.93;6.72;;;17.50;72.50;;;;;;6187598;23;45323;-73
2022/11/29 10:19:28;;;;;;;13.85;6.93;;;17.60;71.40;;;;;;6187461;23;46494;-74
2022/11/29 10:22:02;;;;;;;16.55;7.55;;;17.50;71.20;;;;;;6187729;23;45070;-73
2022/11/29 10:24:31;;;;;;;13.45;6.88;;;17.60;71.10;;;;;;6187553;23;45184;-73
2022/11/29 10:26:58;;;;;;;13.55;6.95;;;17.50;70.90;;;;;;6187331;23;45373;-74
2022/11/29 10:29:25;;;;;;;13.80;6.90;;;17.60;71.10;;;;;;6186990;23;47145;-74
2022/11/29 10:31:55;;;;;;;16.92;7.38;;;17.60;70.80;;;;;;6187393;23;45269;-73
2022/11/29 10:37:45;;;;;;;14.52;6.57;;;17.60;71.30;;;;;;6188009;23;45248;-73
2022/11/29 10:40:17;;;;;;;14.40;6.72;;;17.60;71.50;;;;;;6187194;23;47236;-74
2022/11/29 10:42:51;;;;;;;12.20;6.90;;;17.60;71.50;;;;;;6187480;23;45082;-74
2022/11/29 10:45:25;;;;;;;12.40;6.60;;;17.60;71.70;;;;;;6187870;23;45219;-74
2022/11/29 10:47:54;;;;;;;13.68;7.13;;;17.60;71.80;;;;;;6187875;23;45363;-74
2022/11/29 10:50:25;;;;;;;10.73;6.00;;;17.60;71.90;;;;;;6187234;23;45466;-73
2022/11/29 10:52:55;;;;;;;12.38;6.40;;;17.60;72.00;;;;;;6187472;23;45344;-73
2022/11/29 10:55:22;;;;;;;12.85;6.43;;;17.50;72.10;;;;;;6187504;23;45097;-73
2022/11/29 10:58:11;;;;;;;10.93;5.63;;;17.60;72.40;;;;;;6187406;23;45138;-73
2022/11/29 11:00:45;;;;;;;13.48;6.53;;;17.60;72.40;;;;;;6187221;23;47291;-73
2022/11/29 11:03:30;;;;;;;13.55;5.93;;;17.50;72.40;;;;;;6187493;23;45146;-74
2022/11/29 11:09:57;;;;;;;12.43;6.45;;;17.50;72.80;;;;;;6187569;23;45184;-73
2022/11/29 11:12:28;;;;;;;12.20;6.00;;;17.60;72.90;;;;;;6186946;22;48357;-73
2022/11/29 11:15:15;;;;;;;11.68;6.00;;;17.60;72.90;;;;;;6186574;23;45350;-74
2022/11/29 11:18:06;;;;;;;11.13;6.18;;;17.60;72.80;;;;;;6187455;23;45128;-73
2022/11/29 11:20:36;;;;;;;12.15;6.32;;;17.60;72.80;;;;;;6179486;23;45176;-73
2022/11/29 11:23:05;;;;;;;14.13;6.45;;;17.60;72.60;;;;;;6186772;23;45273;-73
2022/11/29 11:25:34;;;;;;;11.68;6.85;;;17.60;72.30;;;;;;6186844;23;45241;-73
2022/11/29 11:28:16;;;;;;;13.13;6.05;;;17.60;72.20;;;;;;6186753;23;45218;-73
2022/11/29 11:30:51;;;;;;;11.23;6.57;;;17.60;71.90;;;;;;6187577;23;45082;-73
2022/11/29 11:33:20;;;;;;;13.45;6.97;;;17.60;71.70;;;;;;6187106;23;46211;-73
2022/11/29 11:36:06;;;;;;;13.23;6.90;;;17.60;71.70;;;;;;6186747;23;45340;-73
2022/11/29 11:38:34;;;;;;;16.90;7.13;;;17.60;71.50;;;;;;6187058;23;45134;-73
2022/11/29 11:41:06;;;;;;;17.25;7.80;;;17.50;71.30;;;;;;6187337;23;45198;-74
2022/11/29 11:43:34;;;;;;;15.95;7.47;;;17.60;71.40;;;;;;6187132;23;46733;-73
2022/11/29 11:46:01;;;;;;;16.08;7.60;;;17.50;71.20;;;;;;6186610;23;45367;-74
2022/11/29 11:48:29;;;;;;;12.88;7.30;;;17.60;71.10;;;;;;6186911;23;45144;-73
2022/11/29 11:50:58;;;;;;;12.25;6.85;;;17.60;71.10;;;;;;6187432;23;45087;-74
2022/11/29 11:53:28;;;;;;;16.50;7.18;;;17.60;71.50;;;;;;6187075;23;48347;-74
2022/11/29 11:55:59;;;;;;;13.73;7.07;;;17.60;71.70;;;;;;6187222;23;45102;-73
2022/11/29 11:58:28;;;;;;;15.02;7.47;;;17.50;72.00;;;;;;6186863;23;45337;-73
2022/11/29 12:00:58;;;;;;;13.10;6.70;;;17.60;72.10;;;;;;6187150;23;45308;-74
2022/11/29 12:03:36;;;;;;;13.90;6.78;;;17.50;72.20;;;;;;6187255;23;47081;-73
2022/11/29 12:06:25;;;;;;;12.85;6.57;;;17.50;72.40;;;;;;6187239;23;45257;-74
2022/11/29 12:08:57;;;;;;;13.38;6.70;;;17.50;72.50;;;;;;6187474;23;45198;-74
2022/11/29 12:11:25;;;;;;;11.60;6.65;;;17.50;72.70;;;;;;6187363;23;45483;-74
2022/11/29 12:13:57;;;;;;;13.18;6.72;;;17.50;72.80;;;;;;6186884;23;45717;-74
2022/11/29 12:19:56;;;;;;;8.95;5.70;;;17.60;72.90;;;;;;6187357;23;45161;-73
2022/11/29 12:22:28;;;;;;;12.05;6.05;;;17.50;73.00;;;;;;6187405;23;45332;-73
2022/11/29 12:24:59;;;;;;;11.90;5.80;;;17.60;73.20;;;;;;6186480;23;46988;-73
2022/11/29 12:27:26;;;;;;;15.32;6.10;;;17.50;73.10;;;;;;6184563;23;45269;-71
2022/11/29 12:29:53;;;;;;;14.98;6.30;;;17.60;73.60;;;;;;6183429;23;45297;-72
2022/11/29 12:32:51;;;;;;;13.63;6.63;;;17.60;73.50;;;;;;6182917;23;45427;-72
2022/11/29 12:35:42;;;;;;;12.73;6.43;;;17.60;73.50;;;;;;6181044;23;45332;-71
2022/11/29 12:38:20;;;;;;;10.98;6.20;;;17.60;73.50;;;;;;6183592;23;45245;-72
2022/11/29 12:40:57;;;;;;;12.50;5.95;;;17.60;73.60;;;;;;6183346;23;45273;-72
2022/11/29 12:43:39;;;;;;;10.80;5.50;;;17.60;73.60;;;;;;6183416;23;45348;-71
2022/11/29 12:46:11;;;;;;;13.20;6.45;;;17.60;73.80;;;;;;6182123;23;46997;-71
2022/11/29 12:48:49;;;;;;;11.85;6.05;;;17.60;73.80;;;;;;6183162;23;45205;-72
2022/11/29 12:51:25;;;;;;;12.88;6.00;;;17.60;73.80;;;;;;6183271;23;45201;-71
2022/11/29 12:54:19;;;;;;;11.00;6.07;;;17.60;73.90;;;;;;6182761;23;45412;-72
2022/11/29 12:56:55;;;;;;;9.40;5.13;;;17.60;73.90;;;;;;6182404;23;45306;-71
2022/11/29 12:59:32;;;;;;;9.40;5.40;;;17.60;74.90;;;;;;6182751;23;45209;-71
2022/11/29 13:02:17;;;;;;;10.70;6.50;;;17.60;73.90;;;;;;6183475;23;45376;-72
2022/11/29 13:04:48;;;;;;;10.60;5.57;;;17.50;73.50;;;;;;6183726;23;45444;-72
2022/11/29 13:07:26;;;;;;;10.23;5.95;;;17.60;73.50;;;;;;6182586;23;46621;-71
2022/11/29 13:10:15;;;;;;;12.15;6.47;;;17.50;73.40;;;;;;6183314;23;45268;-70
2022/11/29 13:12:46;;;;;;;10.90;6.40;;;17.50;73.20;;;;;;6182662;23;45271;-71
2022/11/29 13:15:16;;;;;;;11.50;6.75;;;17.60;73.20;;;;;;6182923;23;45213;-71
2022/11/29 13:17:53;;;;;;;11.37;6.53;;;17.50;73.00;;;;;;6182609;23;45347;-71
2022/11/29 13:20:30;;;;;;;12.55;6.35;;;17.50;72.80;;;;;;6182511;23;45271;-71
2022/11/29 13:23:05;;;;;;;12.23;6.65;;;17.50;72.60;;;;;;6183173;23;45360;-71
2022/11/29 13:25:35;;;;;;;12.35;7.18;;;17.50;72.60;;;;;;6181869;23;45514;-71
2022/11/29 13:28:07;;;;;;;11.35;6.47;;;17.50;72.40;;;;;;6182409;23;46527;-70
2022/11/29 13:30:35;;;;;;;12.48;7.13;;;17.50;72.40;;;;;;6182277;23;45405;-70
2022/11/29 13:33:07;;;;;;;11.95;6.90;;;17.50;72.40;;;;;;6182992;23;45240;-70
2022/11/29 13:35:43;;;;;;;12.30;7.05;;;17.40;72.50;;;;;;6180726;23;45366;-71
2022/11/29 13:38:18;;;;;;;12.82;6.63;;;17.40;72.60;;;;;;6182438;23;45209;-70
2022/11/29 13:40:54;;;;;;;11.82;7.05;;;17.40;72.80;;;;;;6183960;23;45239;-70